sensor_id;sensor_type;location;lat;lon;timestamp;pressure;altitude;pressure_sealevel;temperature;humidity
35649;BME280;21768;48.562;13.414;2023-02-19T00:02:11;97677.66;;;11.48;73.20
35649;BME280;21768;48.562;13.414;2023-02-19T00:04:36;97678.72;;;11.52;73.17
35649;BME280;21768;48.562;13.414;2023-02-19T00:07:01;97667.94;;;11.54;73.19
35649;BME280;21768;48.562;13.414;2023-02-19T00:09:27;97673.88;;;11.55;73.12
35649;BME280;21768;48.562;13.414;2023-02-19T00:11:52;97679.50;;;11.51;73.28
35649;BME280;21768;48.562;13.414;2023-02-19T00:14:19;97669.97;;;11.47;73.69
35649;BME280;21768;48.562;13.414;2023-02-19T00:16:46;97668.97;;;11.45;73.97
35649;BME280;21768;48.562;13.414;2023-02-19T00:19:13;97662.94;;;11.43;74.06
35649;BME280;21768;48.562;13.414;2023-02-19T00:21:39;97669.75;;;11.44;74.20
35649;BME280;21768;48.562;13.414;2023-02-19T00:24:06;97666.03;;;11.39;74.47
35649;BME280;21768;48.562;13.414;2023-02-19T00:26:32;97654.00;;;11.35;74.64
35649;BME280;21768;48.562;13.414;2023-02-19T00:28:58;97666.78;;;11.24;75.28
35649;BME280;21768;48.562;13.414;2023-02-19T00:31:27;97661.34;;;11.18;75.41
35649;BME280;21768;48.562;13.414;2023-02-19T00:33:55;97667.94;;;11.16;75.58
35649;BME280;21768;48.562;13.414;2023-02-19T00:36:21;97660.19;;;11.13;75.61
35649;BME280;21768;48.562;13.414;2023-02-19T00:38:47;97650.53;;;11.08;75.83
35649;BME280;21768;48.562;13.414;2023-02-19T00:41:14;97651.09;;;11.04;76.04
35649;BME280;21768;48.562;13.414;2023-02-19T00:43:50;97650.22;;;11.03;76.14
35649;BME280;21768;48.562;13.414;2023-02-19T00:46:21;97644.41;;;11.04;76.06
35649;BME280;21768;48.562;13.414;2023-02-19T00:48:47;97645.50;;;11.08;76.20
35649;BME280;21768;48.562;13.414;2023-02-19T00:51:14;97649.09;;;11.11;76.11
35649;BME280;21768;48.562;13.414;2023-02-19T00:53:39;97649.09;;;11.11;76.37
35649;BME280;21768;48.562;13.414;2023-02-19T00:56:06;97644.50;;;11.06;76.27
35649;BME280;21768;48.562;13.414;2023-02-19T00:58:32;97639.91;;;11.00;76.52
35649;BME280;21768;48.562;13.414;2023-02-19T01:00:57;97633.78;;;10.97;76.67
35649;BME280;21768;48.562;13.414;2023-02-19T01:03:23;97639.28;;;10.91;76.96
35649;BME280;21768;48.562;13.414;2023-02-19T01:05:49;97637.75;;;10.93;77.02
35649;BME280;21768;48.562;13.414;2023-02-19T01:08:15;97626.09;;;10.95;77.07
35649;BME280;21768;48.562;13.414;2023-02-19T01:10:40;97630.50;;;10.98;76.93
35649;BME280;21768;48.562;13.414;2023-02-19T01:13:06;97635.06;;;11.03;76.88
35649;BME280;21768;48.562;13.414;2023-02-19T01:15:32;97635.28;;;11.06;76.71
35649;BME280;21768;48.562;13.414;2023-02-19T01:17:58;97632.19;;;11.10;76.83
35649;BME280;21768;48.562;13.414;2023-02-19T01:20:23;97631.78;;;11.04;76.88
35649;BME280;21768;48.562;13.414;2023-02-19T01:22:48;97628.47;;;11.05;76.91
35649;BME280;21768;48.562;13.414;2023-02-19T01:25:14;97629.47;;;11.07;76.94
35649;BME280;21768;48.562;13.414;2023-02-19T01:27:39;97626.16;;;11.08;77.03
35649;BME280;21768;48.562;13.414;2023-02-19T01:30:05;97617.03;;;11.10;77.00
35649;BME280;21768;48.562;13.414;2023-02-19T01:32:30;97616.38;;;11.13;77.02
35649;BME280;21768;48.562;13.414;2023-02-19T01:34:56;97625.78;;;11.15;76.85
35649;BME280;21768;48.562;13.414;2023-02-19T01:37:21;97619.19;;;11.17;77.01
35649;BME280;21768;48.562;13.414;2023-02-19T01:39:46;97610.63;;;11.15;76.94
35649;BME280;21768;48.562;13.414;2023-02-19T01:42:14;97610.72;;;11.17;76.97
35649;BME280;21768;48.562;13.414;2023-02-19T01:47:12;97608.19;;;11.17;76.85
35649;BME280;21768;48.562;13.414;2023-02-19T01:49:43;97593.34;;;11.08;77.11
35649;BME280;21768;48.562;13.414;2023-02-19T01:52:42;97595.09;;;11.09;77.09
35649;BME280;21768;48.562;13.414;2023-02-19T01:55:10;97579.16;;;11.10;76.99
35649;BME280;21768;48.562;13.414;2023-02-19T01:57:40;97581.38;;;11.06;77.07
35649;BME280;21768;48.562;13.414;2023-02-19T02:00:11;97573.81;;;11.06;77.06
35649;BME280;21768;48.562;13.414;2023-02-19T02:02:38;97575.78;;;11.10;77.01
35649;BME280;21768;48.562;13.414;2023-02-19T02:05:08;97568.09;;;11.08;77.02
35649;BME280;21768;48.562;13.414;2023-02-19T02:07:35;97571.59;;;11.10;76.93
35649;BME280;21768;48.562;13.414;2023-02-19T02:10:19;97555.56;;;11.10;76.84
35649;BME280;21768;48.562;13.414;2023-02-19T02:12:48;97550.41;;;11.08;76.92
35649;BME280;21768;48.562;13.414;2023-02-19T02:15:15;97543.41;;;11.04;76.89
35649;BME280;21768;48.562;13.414;2023-02-19T02:18:25;97542.44;;;11.02;76.74
35649;BME280;21768;48.562;13.414;2023-02-19T02:26:12;97536.50;;;11.02;76.71
35649;BME280;21768;48.562;13.414;2023-02-19T02:31:32;97536.50;;;11.02;76.70
35649;BME280;21768;48.562;13.414;2023-02-19T02:34:14;97524.66;;;11.01;76.62
35649;BME280;21768;48.562;13.414;2023-02-19T02:36:44;97525.53;;;11.01;76.87
35649;BME280;21768;48.562;13.414;2023-02-19T02:39:13;97525.53;;;11.01;76.61
35649;BME280;21768;48.562;13.414;2023-02-19T02:41:43;97526.50;;;11.03;76.63
35649;BME280;21768;48.562;13.414;2023-02-19T02:44:10;97518.94;;;11.03;76.54
35649;BME280;21768;48.562;13.414;2023-02-19T02:46:40;97522.03;;;10.99;76.48
35649;BME280;21768;48.562;13.414;2023-02-19T02:49:13;97519.41;;;10.98;76.62
35649;BME280;21768;48.562;13.414;2023-02-19T02:51:43;97516.22;;;11.00;76.77
35649;BME280;21768;48.562;13.414;2023-02-19T02:54:13;97513.78;;;11.02;76.53
35649;BME280;21768;48.562;13.414;2023-02-19T02:57:00;97498.75;;;11.03;76.39
35649;BME280;21768;48.562;13.414;2023-02-19T02:59:29;97499.31;;;10.99;76.38
35649;BME280;21768;48.562;13.414;2023-02-19T03:02:05;97500.00;;;10.97;76.48
35649;BME280;21768;48.562;13.414;2023-02-19T03:05:07;97499.00;;;10.95;76.43
35649;BME280;21768;48.562;13.414;2023-02-19T03:10:47;97493.09;;;10.94;76.29
35649;BME280;21768;48.562;13.414;2023-02-19T03:13:19;97489.78;;;10.95;76.44
35649;BME280;21768;48.562;13.414;2023-02-19T03:16:09;97486.91;;;11.02;76.32
35649;BME280;21768;48.562;13.414;2023-02-19T03:18:57;97480.28;;;11.04;76.15
35649;BME280;21768;48.562;13.414;2023-02-19T03:21:53;97475.91;;;11.02;76.31
35649;BME280;21768;48.562;13.414;2023-02-19T03:24:24;97480.88;;;11.00;76.53
35649;BME280;21768;48.562;13.414;2023-02-19T03:27:11;97480.09;;;11.01;76.52
35649;BME280;21768;48.562;13.414;2023-02-19T03:29:39;97471.75;;;11.02;76.41
35649;BME280;21768;48.562;13.414;2023-02-19T03:32:12;97475.81;;;11.00;76.51
35649;BME280;21768;48.562;13.414;2023-02-19T03:34:46;97475.72;;;10.99;76.34
35649;BME280;21768;48.562;13.414;2023-02-19T03:37:16;97464.44;;;10.94;76.24
35649;BME280;21768;48.562;13.414;2023-02-19T03:39:43;97476.88;;;10.90;76.54
35649;BME280;21768;48.562;13.414;2023-02-19T03:45:15;97473.31;;;10.87;76.42
35649;BME280;21768;48.562;13.414;2023-02-19T03:47:57;97466.50;;;10.86;76.34
35649;BME280;21768;48.562;13.414;2023-02-19T03:50:30;97464.84;;;10.86;76.28
35649;BME280;21768;48.562;13.414;2023-02-19T04:01:22;97434.94;;;10.79;76.39
35649;BME280;21768;48.562;13.414;2023-02-19T04:03:58;97446.59;;;10.77;76.58
35649;BME280;21768;48.562;13.414;2023-02-19T04:06:27;97438.34;;;10.80;76.32
35649;BME280;21768;48.562;13.414;2023-02-19T04:08:55;97439.31;;;10.82;76.64
35649;BME280;21768;48.562;13.414;2023-02-19T04:11:23;97443.38;;;10.80;76.48
35649;BME280;21768;48.562;13.414;2023-02-19T04:16:23;97447.16;;;10.73;76.60
35649;BME280;21768;48.562;13.414;2023-02-19T04:18:53;97449.69;;;10.73;76.61
35649;BME280;21768;48.562;13.414;2023-02-19T04:21:23;97444.63;;;10.73;76.70
35649;BME280;21768;48.562;13.414;2023-02-19T04:23:49;97432.13;;;10.75;76.71
35649;BME280;21768;48.562;13.414;2023-02-19T04:26:16;97423.66;;;10.74;76.70
35649;BME280;21768;48.562;13.414;2023-02-19T04:28:42;97425.22;;;10.72;76.54
35649;BME280;21768;48.562;13.414;2023-02-19T04:31:08;97433.47;;;10.70;76.61
35649;BME280;21768;48.562;13.414;2023-02-19T04:33:34;97435.09;;;10.69;76.62
35649;BME280;21768;48.562;13.414;2023-02-19T04:36:00;97437.72;;;10.71;76.70
35649;BME280;21768;48.562;13.414;2023-02-19T04:38:25;97432.00;;;10.73;76.54
35649;BME280;21768;48.562;13.414;2023-02-19T04:40:50;97425.13;;;10.71;76.59
35649;BME280;21768;48.562;13.414;2023-02-19T04:43:16;97432.78;;;10.72;76.50
35649;BME280;21768;48.562;13.414;2023-02-19T04:45:42;97430.38;;;10.74;76.52
35649;BME280;21768;48.562;13.414;2023-02-19T04:48:08;97437.84;;;10.72;76.19
35649;BME280;21768;48.562;13.414;2023-02-19T04:50:37;97428.41;;;10.70;76.28
35649;BME280;21768;48.562;13.414;2023-02-19T04:53:03;97427.53;;;10.69;76.32
35649;BME280;21768;48.562;13.414;2023-02-19T04:55:29;97435.22;;;10.71;75.88
35649;BME280;21768;48.562;13.414;2023-02-19T04:57:54;97434.22;;;10.69;75.41
35649;BME280;21768;48.562;13.414;2023-02-19T05:00:19;97423.94;;;10.66;75.61
35649;BME280;21768;48.562;13.414;2023-02-19T05:02:45;97428.03;;;10.64;75.69
35649;BME280;21768;48.562;13.414;2023-02-19T05:05:10;97415.59;;;10.67;75.67
35649;BME280;21768;48.562;13.414;2023-02-19T05:07:35;97413.69;;;10.63;75.67
35649;BME280;21768;48.562;13.414;2023-02-19T05:10:01;97411.81;;;10.60;75.72
35649;BME280;21768;48.562;13.414;2023-02-19T05:12:28;97421.81;;;10.59;75.58
35649;BME280;21768;48.562;13.414;2023-02-19T05:14:54;97424.13;;;10.55;75.71
35649;BME280;21768;48.562;13.414;2023-02-19T05:17:19;97427.34;;;10.53;75.58
35649;BME280;21768;48.562;13.414;2023-02-19T05:19:44;97436.13;;;10.46;75.54
35649;BME280;21768;48.562;13.414;2023-02-19T05:22:10;97431.97;;;10.47;75.56
35649;BME280;21768;48.562;13.414;2023-02-19T05:24:35;97437.00;;;10.47;75.41
35649;BME280;21768;48.562;13.414;2023-02-19T05:27:01;97430.44;;;10.49;75.31
35649;BME280;21768;48.562;13.414;2023-02-19T05:29:26;97426.25;;;10.49;75.20
35649;BME280;21768;48.562;13.414;2023-02-19T05:31:52;97426.47;;;10.52;75.11
35649;BME280;21768;48.562;13.414;2023-02-19T05:34:17;97424.91;;;10.54;74.77
35649;BME280;21768;48.562;13.414;2023-02-19T05:36:43;97428.09;;;10.52;74.92
35649;BME280;21768;48.562;13.414;2023-02-19T05:39:10;97434.13;;;10.54;74.82
35649;BME280;21768;48.562;13.414;2023-02-19T05:41:36;97428.22;;;10.53;74.88
35649;BME280;21768;48.562;13.414;2023-02-19T05:44:01;97422.38;;;10.54;75.02
35649;BME280;21768;48.562;13.414;2023-02-19T05:46:28;97441.59;;;10.52;74.82
35649;BME280;21768;48.562;13.414;2023-02-19T05:48:54;97434.22;;;10.55;74.90
35649;BME280;21768;48.562;13.414;2023-02-19T05:51:22;97433.25;;;10.53;74.89
35649;BME280;21768;48.562;13.414;2023-02-19T05:53:47;97441.78;;;10.55;74.82
35649;BME280;21768;48.562;13.414;2023-02-19T05:56:35;97446.84;;;10.55;74.88
35649;BME280;21768;48.562;13.414;2023-02-19T05:59:04;97445.88;;;10.53;74.84
35649;BME280;21768;48.562;13.414;2023-02-19T06:01:32;97467.78;;;10.54;74.94
35649;BME280;21768;48.562;13.414;2023-02-19T06:03:58;97458.47;;;10.53;74.85
35649;BME280;21768;48.562;13.414;2023-02-19T06:06:23;97472.53;;;10.50;75.20
35649;BME280;21768;48.562;13.414;2023-02-19T06:08:49;97468.16;;;10.47;75.28
35649;BME280;21768;48.562;13.414;2023-02-19T06:11:16;97465.63;;;10.47;75.71
35649;BME280;21768;48.562;13.414;2023-02-19T06:13:42;97468.72;;;10.43;75.62
35649;BME280;21768;48.562;13.414;2023-02-19T06:16:07;97471.03;;;10.40;75.89
35649;BME280;21768;48.562;13.414;2023-02-19T06:18:34;97473.56;;;10.40;76.05
35649;BME280;21768;48.562;13.414;2023-02-19T06:21:04;97474.16;;;10.36;76.30
35649;BME280;21768;48.562;13.414;2023-02-19T06:23:30;97472.63;;;10.38;76.52
35649;BME280;21768;48.562;13.414;2023-02-19T06:28:40;97470.44;;;10.31;76.57
35649;BME280;21768;48.562;13.414;2023-02-19T06:31:07;97478.00;;;10.31;76.71
35649;BME280;21768;48.562;13.414;2023-02-19T06:33:34;97481.31;;;10.30;76.70
35649;BME280;21768;48.562;13.414;2023-02-19T06:36:01;97483.72;;;10.29;76.85
35649;BME280;21768;48.562;13.414;2023-02-19T06:38:27;97484.38;;;10.26;77.13
35649;BME280;21768;48.562;13.414;2023-02-19T06:40:53;97482.84;;;10.28;77.05
35649;BME280;21768;48.562;13.414;2023-02-19T06:43:18;97489.75;;;10.31;77.02
35649;BME280;21768;48.562;13.414;2023-02-19T06:45:44;97498.72;;;10.39;76.98
35649;BME280;21768;48.562;13.414;2023-02-19T06:48:09;97498.00;;;10.41;77.12
35649;BME280;21768;48.562;13.414;2023-02-19T06:50:35;97501.50;;;10.43;77.08
35649;BME280;21768;48.562;13.414;2023-02-19T06:53:00;97516.44;;;10.40;77.23
35649;BME280;21768;48.562;13.414;2023-02-19T06:55:26;97519.75;;;10.39;77.19
35649;BME280;21768;48.562;13.414;2023-02-19T06:57:51;97521.31;;;10.37;77.19
35649;BME280;21768;48.562;13.414;2023-02-19T07:00:17;97527.88;;;10.35;77.38
35649;BME280;21768;48.562;13.414;2023-02-19T07:02:42;97524.00;;;10.40;77.40
35649;BME280;21768;48.562;13.414;2023-02-19T07:05:08;97531.22;;;10.47;77.30
35649;BME280;21768;48.562;13.414;2023-02-19T07:07:33;97543.81;;;10.47;77.29
35649;BME280;21768;48.562;13.414;2023-02-19T07:09:58;97541.66;;;10.40;77.35
35649;BME280;21768;48.562;13.414;2023-02-19T07:12:24;97534.69;;;10.36;77.59
35649;BME280;21768;48.562;13.414;2023-02-19T07:14:49;97539.31;;;10.30;77.82
35649;BME280;21768;48.562;13.414;2023-02-19T07:17:15;97540.06;;;10.29;77.86
35649;BME280;21768;48.562;13.414;2023-02-19T07:19:40;97540.19;;;10.31;77.90
35649;BME280;21768;48.562;13.414;2023-02-19T07:22:05;97545.88;;;10.28;77.92
35649;BME280;21768;48.562;13.414;2023-02-19T07:24:31;97542.50;;;10.28;78.11
35649;BME280;21768;48.562;13.414;2023-02-19T07:26:56;97552.47;;;10.26;78.19
35649;BME280;21768;48.562;13.414;2023-02-19T07:29:22;97553.66;;;10.31;78.23
35649;BME280;21768;48.562;13.414;2023-02-19T07:31:47;97555.41;;;10.32;78.08
35649;BME280;21768;48.562;13.414;2023-02-19T07:34:12;97559.69;;;10.33;77.98
35649;BME280;21768;48.562;13.414;2023-02-19T07:36:38;97562.88;;;10.31;77.85
35649;BME280;21768;48.562;13.414;2023-02-19T07:39:03;97569.56;;;10.30;77.70
35649;BME280;21768;48.562;13.414;2023-02-19T07:41:29;97570.53;;;10.32;77.63
35649;BME280;21768;48.562;13.414;2023-02-19T07:43:54;97582.94;;;10.29;77.48
35649;BME280;21768;48.562;13.414;2023-02-19T07:46:20;97588.66;;;10.27;77.44
35649;BME280;21768;48.562;13.414;2023-02-19T07:48:46;97587.22;;;10.30;77.70
35649;BME280;21768;48.562;13.414;2023-02-19T07:51:13;97586.22;;;10.28;77.82
35649;BME280;21768;48.562;13.414;2023-02-19T07:53:41;97600.59;;;10.29;78.19
35649;BME280;21768;48.562;13.414;2023-02-19T07:56:07;97599.28;;;10.34;77.79
35649;BME280;21768;48.562;13.414;2023-02-19T07:58:33;97601.25;;;10.38;77.48
35649;BME280;21768;48.562;13.414;2023-02-19T08:01:07;97590.78;;;10.45;77.64
35649;BME280;21768;48.562;13.414;2023-02-19T08:03:33;97593.59;;;10.62;77.27
35649;BME280;21768;48.562;13.414;2023-02-19T08:05:59;97595.25;;;10.74;76.57
35649;BME280;21768;48.562;13.414;2023-02-19T08:08:24;97603.78;;;10.88;76.31
35649;BME280;21768;48.562;13.414;2023-02-19T08:10:50;97605.09;;;11.08;75.97
35649;BME280;21768;48.562;13.414;2023-02-19T08:13:34;97599.38;;;11.23;75.26
35649;BME280;21768;48.562;13.414;2023-02-19T08:18:30;97594.38;;;11.50;74.57
35649;BME280;21768;48.562;13.414;2023-02-19T08:20:56;97605.03;;;11.46;73.45
35649;BME280;21768;48.562;13.414;2023-02-19T08:23:22;97601.56;;;11.57;73.79
35649;BME280;21768;48.562;13.414;2023-02-19T08:25:49;97602.44;;;11.71;73.21
35649;BME280;21768;48.562;13.414;2023-02-19T08:28:15;97606.44;;;11.93;72.60
35649;BME280;21768;48.562;13.414;2023-02-19T08:30:42;97600.50;;;12.06;71.25
35649;BME280;21768;48.562;13.414;2023-02-19T08:33:13;97604.34;;;11.86;71.99
35649;BME280;21768;48.562;13.414;2023-02-19T08:35:39;97605.97;;;11.99;72.49
35649;BME280;21768;48.562;13.414;2023-02-19T08:38:07;97608.50;;;12.96;69.10
35649;BME280;21768;48.562;13.414;2023-02-19T08:40:33;97598.06;;;13.78;66.34
35649;BME280;21768;48.562;13.414;2023-02-19T08:43:07;97616.03;;;13.98;64.15
35649;BME280;21768;48.562;13.414;2023-02-19T08:45:33;97614.97;;;13.34;65.04
35649;BME280;21768;48.562;13.414;2023-02-19T08:47:59;97619.78;;;12.73;66.47
35649;BME280;21768;48.562;13.414;2023-02-19T08:50:25;97619.91;;;12.34;68.42
35649;BME280;21768;48.562;13.414;2023-02-19T08:52:50;97619.25;;;12.23;68.64
35649;BME280;21768;48.562;13.414;2023-02-19T08:55:16;97631.16;;;12.11;68.88
35649;BME280;21768;48.562;13.414;2023-02-19T08:57:42;97623.25;;;12.19;68.93
35649;BME280;21768;48.562;13.414;2023-02-19T09:00:08;97613.59;;;13.11;66.45
35649;BME280;21768;48.562;13.414;2023-02-19T09:02:34;97624.03;;;14.51;63.87
35649;BME280;21768;48.562;13.414;2023-02-19T09:04:59;97616.50;;;15.01;61.15
35649;BME280;21768;48.562;13.414;2023-02-19T09:07:25;97608.88;;;14.52;60.78
35649;BME280;21768;48.562;13.414;2023-02-19T09:09:50;97616.84;;;14.13;61.73
35649;BME280;21768;48.562;13.414;2023-02-19T09:12:16;97631.28;;;13.68;63.08
35649;BME280;21768;48.562;13.414;2023-02-19T09:14:41;97636.81;;;13.32;63.49
35649;BME280;21768;48.562;13.414;2023-02-19T09:17:07;97635.28;;;13.20;63.56
35649;BME280;21768;48.562;13.414;2023-02-19T09:19:33;97635.06;;;13.03;64.08
35649;BME280;21768;48.562;13.414;2023-02-19T09:21:59;97628.75;;;12.96;64.42
35649;BME280;21768;48.562;13.414;2023-02-19T09:24:24;97652.69;;;12.86;63.89
35649;BME280;21768;48.562;13.414;2023-02-19T09:26:52;97662.75;;;12.72;64.30
35649;BME280;21768;48.562;13.414;2023-02-19T09:29:18;97657.84;;;12.47;64.24
35649;BME280;21768;48.562;13.414;2023-02-19T09:31:43;97662.16;;;12.35;64.23
35649;BME280;21768;48.562;13.414;2023-02-19T09:34:09;97658.94;;;12.37;65.13
35649;BME280;21768;48.562;13.414;2023-02-19T09:36:36;97659.41;;;12.45;64.67
35649;BME280;21768;48.562;13.414;2023-02-19T09:39:03;97660.28;;;12.45;64.60
35649;BME280;21768;48.562;13.414;2023-02-19T09:41:36;97654.56;;;12.35;64.57
35649;BME280;21768;48.562;13.414;2023-02-19T09:44:03;97674.69;;;12.46;64.56
35649;BME280;21768;48.562;13.414;2023-02-19T09:49:17;97674.03;;;12.36;64.15
35649;BME280;21768;48.562;13.414;2023-02-19T09:52:12;97676.03;;;12.41;64.28
35649;BME280;21768;48.562;13.414;2023-02-19T09:54:37;97674.97;;;12.38;64.48
35649;BME280;21768;48.562;13.414;2023-02-19T09:57:03;97679.34;;;12.40;64.04
35649;BME280;21768;48.562;13.414;2023-02-19T09:59:45;97674.00;;;12.49;64.11
35649;BME280;21768;48.562;13.414;2023-02-19T10:02:16;97681.09;;;12.54;64.83
35649;BME280;21768;48.562;13.414;2023-02-19T10:04:44;97674.28;;;12.53;63.29
35649;BME280;21768;48.562;13.414;2023-02-19T10:07:34;97683.63;;;12.54;63.60
35649;BME280;21768;48.562;13.414;2023-02-19T10:12:51;97677.28;;;12.89;62.58
35649;BME280;21768;48.562;13.414;2023-02-19T10:17:49;97673.84;;;13.02;61.34
35649;BME280;21768;48.562;13.414;2023-02-19T10:20:16;97668.19;;;12.78;61.40
35649;BME280;21768;48.562;13.414;2023-02-19T10:22:42;97681.88;;;12.53;61.43
35649;BME280;21768;48.562;13.414;2023-02-19T10:25:13;97686.16;;;12.41;61.97
35649;BME280;21768;48.562;13.414;2023-02-19T10:27:40;97678.03;;;12.32;62.28
35649;BME280;21768;48.562;13.414;2023-02-19T10:30:06;97689.69;;;12.30;61.22
35649;BME280;21768;48.562;13.414;2023-02-19T10:33:00;97685.13;;;12.24;62.10
35649;BME280;21768;48.562;13.414;2023-02-19T10:35:25;97694.44;;;12.39;62.24
35649;BME280;21768;48.562;13.414;2023-02-19T10:37:51;97705.81;;;12.58;61.20
35649;BME280;21768;48.562;13.414;2023-02-19T10:40:26;97700.94;;;12.62;60.58
35649;BME280;21768;48.562;13.414;2023-02-19T10:42:56;97706.94;;;12.64;61.73
35649;BME280;21768;48.562;13.414;2023-02-19T10:45:47;97705.63;;;12.55;61.09
35649;BME280;21768;48.562;13.414;2023-02-19T10:48:27;97716.91;;;12.47;61.52
35649;BME280;21768;48.562;13.414;2023-02-19T10:50:58;97707.19;;;12.40;62.23
35649;BME280;21768;48.562;13.414;2023-02-19T10:53:45;97725.41;;;12.35;62.13
35649;BME280;21768;48.562;13.414;2023-02-19T10:56:22;97707.50;;;12.32;61.33
35649;BME280;21768;48.562;13.414;2023-02-19T10:58:48;97706.59;;;12.44;61.58
35649;BME280;21768;48.562;13.414;2023-02-19T11:03:47;97702.31;;;12.56;60.92
35649;BME280;21768;48.562;13.414;2023-02-19T11:06:14;97705.53;;;12.54;61.43
35649;BME280;21768;48.562;13.414;2023-02-19T11:08:53;97709.72;;;12.53;61.64
35649;BME280;21768;48.562;13.414;2023-02-19T11:13:55;97701.53;;;12.44;61.80
35649;BME280;21768;48.562;13.414;2023-02-19T11:16:23;97697.44;;;12.59;61.46
35649;BME280;21768;48.562;13.414;2023-02-19T11:18:53;97702.72;;;12.49;61.66
35649;BME280;21768;48.562;13.414;2023-02-19T11:21:27;97697.06;;;12.53;61.58
35649;BME280;21768;48.562;13.414;2023-02-19T11:23:58;97700.13;;;12.76;60.29
35649;BME280;21768;48.562;13.414;2023-02-19T11:26:25;97697.19;;;12.83;60.06
35649;BME280;21768;48.562;13.414;2023-02-19T11:28:59;97684.78;;;12.87;59.98
35649;BME280;21768;48.562;13.414;2023-02-19T11:31:27;97683.97;;;13.30;58.70
35649;BME280;21768;48.562;13.414;2023-02-19T11:33:57;97691.06;;;15.34;54.78
35649;BME280;21768;48.562;13.414;2023-02-19T11:36:32;97676.91;;;17.76;48.37
35649;BME280;21768;48.562;13.414;2023-02-19T12:01:01;97689.50;;;13.96;54.26
35649;BME280;21768;48.562;13.414;2023-02-19T12:03:52;97696.50;;;13.56;55.48
35649;BME280;21768;48.562;13.414;2023-02-19T12:09:35;97688.94;;;13.00;56.26
35649;BME280;21768;48.562;13.414;2023-02-19T12:11:55;97685.31;;;12.82;56.03
35649;BME280;21768;48.562;13.414;2023-02-19T12:17:29;97701.94;;;12.50;57.20
35649;BME280;21768;48.562;13.414;2023-02-19T12:39:46;97702.19;;;12.68;56.52
35649;BME280;21768;48.562;13.414;2023-02-19T12:44:53;97695.06;;;12.63;56.53
35649;BME280;21768;48.562;13.414;2023-02-19T12:47:25;97709.38;;;12.62;56.56
35649;BME280;21768;48.562;13.414;2023-02-19T12:50:06;97715.41;;;12.64;57.03
35649;BME280;21768;48.562;13.414;2023-02-19T12:52:40;97727.31;;;12.65;56.54
35649;BME280;21768;48.562;13.414;2023-02-19T12:55:20;97706.16;;;12.65;55.97
35649;BME280;21768;48.562;13.414;2023-02-19T12:57:47;97710.56;;;12.67;56.21
35649;BME280;21768;48.562;13.414;2023-02-19T13:03:05;97717.69;;;12.59;56.21
35649;BME280;21768;48.562;13.414;2023-02-19T13:05:48;97715.94;;;12.58;56.19
35649;BME280;21768;48.562;13.414;2023-02-19T13:10:58;97711.47;;;12.41;56.37
35649;BME280;21768;48.562;13.414;2023-02-19T13:13:39;97706.59;;;12.44;56.43
35649;BME280;21768;48.562;13.414;2023-02-19T13:16:09;97704.47;;;12.50;56.63
35649;BME280;21768;48.562;13.414;2023-02-19T13:21:13;97707.03;;;12.65;55.89
35649;BME280;21768;48.562;13.414;2023-02-19T13:24:01;97701.09;;;12.65;55.68
35649;BME280;21768;48.562;13.414;2023-02-19T13:32:28;97702.13;;;12.53;55.80
35649;BME280;21768;48.562;13.414;2023-02-19T13:37:38;97700.84;;;12.47;56.08
35649;BME280;21768;48.562;13.414;2023-02-19T13:40:34;97703.78;;;12.40;56.04
35649;BME280;21768;48.562;13.414;2023-02-19T13:43:06;97711.69;;;12.31;56.58
35649;BME280;21768;48.562;13.414;2023-02-19T13:45:42;97712.28;;;12.27;56.50
35649;BME280;21768;48.562;13.414;2023-02-19T13:48:32;97715.56;;;12.26;56.46
35649;BME280;21768;48.562;13.414;2023-02-19T14:14:50;97731.16;;;12.32;56.83
35649;BME280;21768;48.562;13.414;2023-02-19T14:23:15;97729.59;;;12.34;57.24
35649;BME280;21768;48.562;13.414;2023-02-19T14:33:29;97730.06;;;12.02;56.69
35649;BME280;21768;48.562;13.414;2023-02-19T14:38:50;97736.38;;;11.96;57.35
35649;BME280;21768;48.562;13.414;2023-02-19T14:41:18;97735.41;;;11.93;57.79
35649;BME280;21768;48.562;13.414;2023-02-19T14:43:48;97742.78;;;11.90;58.09
35649;BME280;21768;48.562;13.414;2023-02-19T14:46:31;97749.69;;;11.80;58.30
35649;BME280;21768;48.562;13.414;2023-02-19T14:49:24;97741.44;;;11.71;59.09
35649;BME280;21768;48.562;13.414;2023-02-19T14:51:49;97739.59;;;11.68;58.56
35649;BME280;21768;48.562;13.414;2023-02-19T14:54:32;97748.50;;;11.63;58.41
35649;BME280;21768;48.562;13.414;2023-02-19T14:57:00;97740.16;;;11.64;59.11
35649;BME280;21768;48.562;13.414;2023-02-19T14:59:29;97747.94;;;11.67;58.44
35649;BME280;21768;48.562;13.414;2023-02-19T15:02:23;97764.00;;;11.68;59.13
35649;BME280;21768;48.562;13.414;2023-02-19T15:04:50;97761.56;;;11.69;58.97
35649;BME280;21768;48.562;13.414;2023-02-19T15:07:20;97761.47;;;11.68;58.82
35649;BME280;21768;48.562;13.414;2023-02-19T15:09:50;97768.28;;;11.69;58.70
35649;BME280;21768;48.562;13.414;2023-02-19T15:12:25;97769.16;;;11.69;58.09
35649;BME280;21768;48.562;13.414;2023-02-19T15:14:57;97764.88;;;11.68;58.28
35649;BME280;21768;48.562;13.414;2023-02-19T15:17:29;97770.50;;;11.64;57.83
35649;BME280;21768;48.562;13.414;2023-02-19T15:19:57;97781.38;;;11.63;58.02
35649;BME280;21768;48.562;13.414;2023-02-19T15:22:28;97781.38;;;11.63;58.09
35649;BME280;21768;48.562;13.414;2023-02-19T15:24:59;97781.47;;;11.65;57.78
35649;BME280;21768;48.562;13.414;2023-02-19T15:27:25;97779.66;;;11.62;57.89
35649;BME280;21768;48.562;13.414;2023-02-19T15:29:51;97784.00;;;11.65;57.87
35649;BME280;21768;48.562;13.414;2023-02-19T15:32:22;97785.66;;;11.64;57.92
35649;BME280;21768;48.562;13.414;2023-02-19T15:34:59;97787.22;;;11.62;57.90
35649;BME280;21768;48.562;13.414;2023-02-19T15:37:28;97794.41;;;11.56;57.97